Time;durP1;ratioP1;P1;durP2;ratioP2;P2;SDS_P1;SDS_P2;PMS_P1;PMS_P2;Temp;Humidity;BMP_temperature;BMP_pressure;BME280_temperature;BME280_humidity;BME280_pressure;Samples;Min_cycle;Max_cycle;Signal;HPM_P1;HPM_P2
2022/08/30 00:03:10;;;;;;;10.35;6.15;;;;;;;23.76;50.60;102255.81;5092034;28;20043;-74
2022/08/30 00:05:36;;;;;;;10.68;5.63;;;;;;;23.80;50.57;102250.56;5073352;28;20119;-76
2022/08/30 00:08:02;;;;;;;7.53;4.47;;;;;;;23.36;51.52;102251.22;5091772;28;20115;-75
2022/08/30 00:10:28;;;;;;;11.52;5.18;;;;;;;23.61;50.89;102249.50;5092238;28;20032;-74
2022/08/30 00:12:57;;;;;;;11.73;5.60;;;;;;;23.78;50.72;102239.88;5092775;28;20028;-75
2022/08/30 00:15:23;;;;;;;8.30;5.57;;;;;;;23.74;50.58;102237.97;5091419;28;20039;-77
2022/08/30 00:17:49;;;;;;;7.95;5.07;;;;;;;23.85;50.14;102239.56;5073839;28;20043;-76
2022/08/30 00:20:17;;;;;;;7.32;5.63;;;;;;;23.52;51.27;102238.28;5091487;28;20081;-75
2022/08/30 00:22:43;;;;;;;8.13;5.10;;;;;;;23.62;50.36;102241.00;5087636;28;20102;-75
2022/08/30 00:25:11;;;;;;;6.90;4.90;;;;;;;23.49;50.90;102239.66;5083114;28;20433;-74
2022/08/30 00:27:37;;;;;;;8.82;4.93;;;;;;;23.65;50.75;102239.59;5080243;28;20036;-76
2022/08/30 00:30:04;;;;;;;7.25;4.97;;;;;;;23.43;51.51;102246.25;5080614;28;20502;-73
2022/08/30 00:32:30;;;;;;;8.55;4.93;;;;;;;23.54;51.27;102236.91;5087168;28;20045;-76
2022/08/30 00:34:55;;;;;;;8.90;5.95;;;;;;;23.47;51.37;102238.28;5082811;28;20437;-76
2022/08/30 00:37:21;;;;;;;7.70;6.18;;;;;;;23.36;51.77;102237.50;5080260;28;20021;-75
2022/08/30 00:39:47;;;;;;;12.77;5.88;;;;;;;23.25;52.17;102232.25;5081914;28;20032;-73
2022/08/30 00:42:14;;;;;;;9.27;5.38;;;;;;;23.33;51.91;102232.53;5061992;28;20123;-75
2022/08/30 00:44:41;;;;;;;8.07;5.18;;;;;;;23.34;52.21;102236.94;5086229;28;20206;-75
2022/08/30 00:47:06;;;;;;;9.95;5.03;;;;;;;23.11;52.00;102231.16;5086510;28;20036;-76
2022/08/30 00:49:34;;;;;;;8.65;5.63;;;;;;;23.24;52.00;102231.44;5085385;28;20031;-73
2022/08/30 00:52:02;;;;;;;8.43;6.38;;;;;;;23.05;53.00;102235.00;5084508;28;20040;-75
2022/08/30 00:54:29;;;;;;;6.38;5.72;;;;;;;23.17;53.02;102230.06;5085651;28;20055;-74
2022/08/30 00:56:55;;;;;;;8.95;5.65;;;;;;;23.19;52.68;102231.41;5086491;28;20081;-74
2022/08/30 00:59:23;;;;;;;5.93;5.30;;;;;;;23.28;52.56;102231.69;5085890;28;20375;-72
2022/08/30 01:01:49;;;;;;;6.95;5.93;;;;;;;23.31;52.01;102237.47;5084494;28;20038;-76
2022/08/30 01:04:18;;;;;;;8.48;6.22;;;;;;;23.11;52.91;102236.66;5066410;28;20032;-75
2022/08/30 01:06:45;;;;;;;8.40;6.45;;;;;;;23.17;52.08;102230.91;5083894;28;20035;-73
2022/08/30 01:09:12;;;;;;;10.73;6.25;;;;;;;22.95;52.71;102233.09;5084044;28;20066;-73
2022/08/30 01:11:40;;;;;;;12.85;6.43;;;;;;;23.36;51.52;102237.50;5086278;28;20051;-74
2022/08/30 01:14:08;;;;;;;6.57;5.72;;;;;;;23.38;51.80;102243.53;5092877;28;20542;-72
2022/08/30 01:16:34;;;;;;;8.27;5.88;;;;;;;23.26;51.89;102245.69;5089831;28;20039;-73
2022/08/30 01:19:02;;;;;;;9.43;5.63;;;;;;;23.22;52.17;102247.34;5089704;28;20032;-73
2022/08/30 01:21:44;;;;;;;8.05;5.82;;;;;;;23.36;51.88;102255.88;5088929;28;20032;-75
2022/08/30 01:24:11;;;;;;;12.10;5.50;;;;;;;22.73;53.02;102259.91;5081136;28;20044;-73
2022/08/30 01:26:37;;;;;;;9.18;6.20;;;;;;;23.09;52.94;102252.56;5074710;28;20049;-72
2022/08/30 01:29:07;;;;;;;10.90;6.20;;;;;;;23.33;52.09;102254.47;5075043;28;20154;-73
2022/08/30 01:31:35;;;;;;;6.25;5.65;;;;;;;23.22;51.70;102255.56;5074758;28;20051;-74
2022/08/30 01:34:04;;;;;;;8.40;6.15;;;;;;;23.17;52.32;102263.81;5075200;28;20024;-73
2022/08/30 01:36:30;;;;;;;11.63;5.88;;;;;;;23.23;51.73;102264.63;5085819;28;20040;-73
2022/08/30 01:38:57;;;;;;;8.45;5.68;;;;;;;23.14;52.50;102258.84;5094604;28;20032;-72
2022/08/30 01:41:25;;;;;;;7.57;6.20;;;;;;;23.27;51.59;102265.72;5094765;28;20040;-71
2022/08/30 01:43:55;;;;;;;8.13;5.40;;;;;;;23.23;51.88;102257.19;5094553;28;20073;-73
2022/08/30 01:46:23;;;;;;;10.07;7.55;;;;;;;23.26;51.94;102261.31;5095177;28;20340;-72
2022/08/30 01:48:49;;;;;;;7.07;5.95;;;;;;;23.24;51.96;102263.50;5094572;28;20090;-73
2022/08/30 01:51:15;;;;;;;7.45;5.45;;;;;;;23.24;51.96;102261.59;5094512;28;20697;-73
2022/08/30 01:53:43;;;;;;;12.80;6.85;;;;;;;23.12;51.80;102261.06;5094268;28;20124;-73
2022/08/30 01:56:09;;;;;;;10.70;6.40;;;;;;;23.15;52.43;102274.22;5075892;28;20051;-73
2022/08/30 01:58:36;;;;;;;8.52;6.22;;;;;;;23.06;52.60;102267.63;5076322;28;20442;-72
2022/08/30 02:01:08;;;;;;;6.63;5.72;;;;;;;23.12;51.90;102268.44;5095336;28;20402;-72
2022/08/30 02:03:35;;;;;;;6.97;5.65;;;;;;;23.07;52.09;102262.97;5094319;28;20031;-73
2022/08/30 02:06:06;;;;;;;9.48;5.50;;;;;;;23.05;52.67;102260.50;5094486;28;20487;-72
2022/08/30 02:08:32;;;;;;;8.25;5.78;;;;;;;23.12;52.02;102263.78;5076238;28;20500;-72
2022/08/30 02:10:58;;;;;;;7.72;6.07;;;;;;;23.03;52.61;102270.09;5094286;28;20048;-72
2022/08/30 02:13:24;;;;;;;8.23;6.35;;;;;;;22.97;52.39;102266.53;5094354;28;20035;-73
2022/08/30 02:15:49;;;;;;;7.97;6.07;;;;;;;23.02;52.74;102265.69;5090180;28;20202;-74
2022/08/30 02:18:14;;;;;;;7.43;6.55;;;;;;;23.09;52.26;102258.88;5088619;28;20484;-72
2022/08/30 02:20:40;;;;;;;7.22;5.97;;;;;;;23.10;51.83;102263.25;5094088;28;20032;-73
2022/08/30 02:23:05;;;;;;;8.40;6.72;;;;;;;22.95;52.57;102268.72;5089222;28;20086;-72
2022/08/30 02:25:31;;;;;;;7.18;6.47;;;;;;;23.05;52.29;102257.78;5074068;28;20036;-72
2022/08/30 02:27:56;;;;;;;9.10;6.90;;;;;;;22.97;52.57;102261.06;5074529;28;20442;-74
2022/08/30 02:30:21;;;;;;;8.70;6.65;;;;;;;23.09;52.09;102266.28;5073778;28;20044;-72
2022/08/30 02:32:47;;;;;;;11.05;7.03;;;;;;;22.98;52.54;102278.31;5055460;28;20029;-74
2022/08/30 02:35:12;;;;;;;7.70;6.93;;;;;;;22.94;52.60;102271.75;5079916;28;20329;-72
2022/08/30 02:37:38;;;;;;;10.27;6.28;;;;;;;22.95;52.21;102270.63;5094010;28;20020;-73
2022/08/30 02:40:06;;;;;;;8.75;6.60;;;;;;;22.89;52.04;102266.25;5094186;28;20594;-72
2022/08/30 02:42:32;;;;;;;6.95;6.20;;;;;;;22.88;52.22;102267.34;5093852;28;20407;-74
2022/08/30 02:44:58;;;;;;;8.52;6.15;;;;;;;22.88;52.27;102268.16;5093649;28;20043;-73
2022/08/30 02:47:23;;;;;;;13.50;6.90;;;;;;;22.92;52.44;102268.47;5093710;28;20034;-72
2022/08/30 02:49:49;;;;;;;10.02;7.15;;;;;;;22.90;52.21;102271.44;5093647;28;20488;-73
2022/08/30 02:52:14;;;;;;;11.00;6.40;;;;;;;22.89;52.63;102275.31;5075736;28;20023;-72
2022/08/30 02:54:39;;;;;;;10.05;7.18;;;;;;;22.81;52.81;102264.88;5093216;28;20168;-73
2022/08/30 02:57:05;;;;;;;8.20;6.93;;;;;;;22.90;52.36;102262.44;5093556;28;20044;-72
2022/08/30 02:59:32;;;;;;;10.18;7.10;;;;;;;22.85;52.84;102259.66;5093327;28;20514;-73
2022/08/30 03:01:57;;;;;;;11.07;7.43;;;;;;;22.84;52.75;102256.09;5093256;28;20484;-73
2022/08/30 03:04:22;;;;;;;7.93;6.93;;;;;;;22.85;52.36;102256.91;5093541;28;20089;-73
2022/08/30 03:06:48;;;;;;;15.65;8.32;;;;;;;22.62;53.04;102252.78;5092330;28;20054;-74
2022/08/30 03:09:13;;;;;;;8.77;7.43;;;;;;;22.74;53.22;102263.50;5093051;28;20364;-72
2022/08/30 03:11:41;;;;;;;13.18;7.88;;;;;;;22.82;53.02;102252.00;5092913;28;20032;-72
2022/08/30 03:14:06;;;;;;;16.67;7.20;;;;;;;22.57;53.58;102250.84;5080612;28;20060;-72
2022/08/30 03:16:32;;;;;;;10.23;7.72;;;;;;;22.62;53.17;102252.78;5082133;28;20028;-72
2022/08/30 03:18:58;;;;;;;10.85;7.65;;;;;;;22.82;52.38;102252.00;5093381;28;20036;-73
2022/08/30 03:21:23;;;;;;;8.20;6.93;;;;;;;22.87;52.64;102247.34;5093047;28;20454;-73
2022/08/30 03:23:48;;;;;;;10.88;7.10;;;;;;;22.85;52.69;102248.69;5092676;28;20089;-72
2022/08/30 03:26:14;;;;;;;7.80;7.00;;;;;;;22.85;52.05;102251.44;5092690;28;20024;-73
2022/08/30 03:28:41;;;;;;;9.63;6.70;;;;;;;22.79;52.54;102253.34;5092773;28;20490;-73
2022/08/30 03:31:08;;;;;;;13.85;7.68;;;;;;;22.75;52.38;102255.00;5093499;28;20019;-73
2022/08/30 03:33:34;;;;;;;10.98;7.03;;;;;;;22.79;52.46;102260.75;5092656;28;20071;-73
2022/08/30 03:35:59;;;;;;;7.72;6.88;;;;;;;22.80;52.56;102256.94;5092754;28;20040;-72
2022/08/30 03:38:25;;;;;;;10.27;6.55;;;;;;;22.62;52.85;102261.81;5092901;28;20499;-73
2022/08/30 03:40:50;;;;;;;14.55;7.72;;;;;;;22.79;52.20;102252.53;5092497;28;20157;-75
2022/08/30 03:43:16;;;;;;;8.93;7.22;;;;;;;22.70;52.60;102252.25;5093219;28;20073;-72
2022/08/30 03:45:41;;;;;;;19.02;6.97;;;;;;;22.61;52.69;102257.44;5092471;28;20491;-73
2022/08/30 03:48:07;;;;;;;11.77;7.70;;;;;;;22.65;52.86;102249.50;5092498;28;20043;-73
2022/08/30 03:50:34;;;;;;;8.65;7.13;;;;;;;22.62;53.02;102252.78;5092251;28;20032;-72
2022/08/30 03:53:00;;;;;;;9.55;8.15;;;;;;;22.61;52.40;102251.97;5092395;28;20059;-73
2022/08/30 03:55:27;;;;;;;10.10;7.63;;;;;;;22.38;53.42;102252.41;5092735;28;20032;-74
2022/08/30 03:57:52;;;;;;;10.95;8.13;;;;;;;22.39;53.84;102258.69;5092799;28;20091;-74
2022/08/30 04:00:19;;;;;;;11.20;7.97;;;;;;;22.28;53.55;102257.88;5092148;28;20472;-73
2022/08/30 04:02:45;;;;;;;10.77;8.18;;;;;;;22.42;53.23;102256.28;5074988;28;20040;-74
2022/08/30 04:05:11;;;;;;;8.65;7.72;;;;;;;22.35;53.56;102252.94;5074561;28;20556;-73
2022/08/30 04:07:36;;;;;;;14.02;8.68;;;;;;;22.31;53.30;102257.31;5078485;28;20468;-72
2022/08/30 04:10:03;;;;;;;10.90;7.97;;;;;;;22.44;53.01;102265.03;5084919;28;20033;-72
2022/08/30 04:12:28;;;;;;;9.80;7.88;;;;;;;22.34;53.47;102259.53;5083299;28;20054;-73
2022/08/30 04:14:54;;;;;;;12.02;7.95;;;;;;;22.44;53.36;102261.47;5090908;28;20040;-74
2022/08/30 04:17:19;;;;;;;12.80;7.68;;;;;;;22.43;52.92;102263.38;5090507;28;20526;-75
2022/08/30 04:19:45;;;;;;;10.55;7.90;;;;;;;22.56;52.53;102267.53;5091608;28;20483;-72
2022/08/30 04:22:10;;;;;;;12.40;8.05;;;;;;;22.40;53.25;102266.66;5091929;28;20024;-72
2022/08/30 04:24:37;;;;;;;13.32;7.88;;;;;;;21.88;54.83;102265.88;5091409;28;20036;-73
2022/08/30 04:27:03;;;;;;;13.73;8.13;;;;;;;22.23;53.34;102257.81;5091610;28;20032;-74
2022/08/30 04:29:29;;;;;;;8.90;8.00;;;;;;;22.17;53.86;102266.31;5092070;28;20385;-72
2022/08/30 04:31:54;;;;;;;9.63;7.75;;;;;;;22.39;53.20;102256.78;5091790;28;20149;-72
2022/08/30 04:34:20;;;;;;;14.23;8.75;;;;;;;22.46;53.10;102262.84;5092212;28;20116;-72
2022/08/30 04:36:47;;;;;;;10.63;8.20;;;;;;;22.32;53.05;102274.56;5091924;28;20068;-72
2022/08/30 04:39:12;;;;;;;16.13;8.35;;;;;;;22.31;53.34;102275.69;5071643;28;20040;-73
2022/08/30 04:41:39;;;;;;;11.13;8.32;;;;;;;22.24;53.65;102275.91;5070863;28;20527;-73
2022/08/30 04:44:05;;;;;;;12.35;9.18;;;;;;;22.37;53.06;102271.84;5071206;28;20673;-72
2022/08/30 04:46:30;;;;;;;11.00;7.72;;;;;;;22.39;52.73;102272.41;5081517;28;20097;-71
2022/08/30 04:48:56;;;;;;;11.20;8.10;;;;;;;22.41;52.60;102278.44;5081248;28;20031;-72
2022/08/30 04:51:21;;;;;;;9.23;8.23;;;;;;;22.19;53.17;102275.09;5080014;28;20039;-73
2022/08/30 04:53:47;;;;;;;13.57;8.23;;;;;;;22.10;53.64;102277.50;5081407;28;20058;-73
2022/08/30 04:56:21;;;;;;;9.00;7.68;;;;;;;22.46;52.17;102272.97;5079760;28;20028;-72
2022/08/30 04:58:47;;;;;;;8.77;7.88;;;;;;;22.44;52.31;102283.38;5079227;28;20103;-72
2022/08/30 05:01:15;;;;;;;11.10;7.43;;;;;;;22.53;52.08;102281.75;5081428;28;20054;-73
2022/08/30 05:03:41;;;;;;;9.10;7.20;;;;;;;22.33;52.90;102290.72;5080960;28;20032;-72
2022/08/30 05:06:07;;;;;;;10.75;7.68;;;;;;;22.48;51.97;102289.97;5078413;28;20078;-71
2022/08/30 05:08:32;;;;;;;11.18;7.88;;;;;;;22.41;52.07;102294.88;5091202;28;20097;-72
2022/08/30 05:10:57;;;;;;;8.45;7.13;;;;;;;22.36;52.19;102301.16;5091476;28;20032;-73
2022/08/30 05:13:23;;;;;;;15.27;7.50;;;;;;;22.42;52.30;102299.28;5086410;28;20043;-72
2022/08/30 05:15:48;;;;;;;8.68;7.45;;;;;;;22.40;51.99;102302.28;5066690;28;20039;-72
2022/08/30 05:18:14;;;;;;;9.88;7.50;;;;;;;22.37;52.17;102301.97;5091187;28;20049;-72
2022/08/30 05:20:40;;;;;;;9.65;7.03;;;;;;;22.41;52.10;102303.09;5085463;28;20381;-72
2022/08/30 05:23:05;;;;;;;9.18;7.75;;;;;;;22.37;52.08;102308.28;5083557;28;20039;-72
2022/08/30 05:25:33;;;;;;;11.77;7.63;;;;;;;22.44;51.74;102308.88;5079554;28;20040;-72
2022/08/30 05:27:58;;;;;;;8.15;7.13;;;;;;;22.46;52.17;102311.34;5081459;28;20028;-72
2022/08/30 05:30:26;;;;;;;8.82;7.80;;;;;;;22.52;52.14;102311.09;5077606;28;20123;-72
2022/08/30 05:32:52;;;;;;;13.57;7.35;;;;;;;22.49;52.09;102313.53;5085444;28;20380;-73
2022/08/30 05:35:19;;;;;;;12.05;7.40;;;;;;;22.52;51.92;102326.72;5083342;28;20036;-72
2022/08/30 05:37:44;;;;;;;12.55;7.13;;;;;;;22.52;51.84;102322.06;5084580;28;20027;-73
2022/08/30 05:40:11;;;;;;;12.43;7.53;;;;;;;22.46;51.84;102319.56;5085940;28;20111;-72
2022/08/30 05:42:37;;;;;;;11.18;7.30;;;;;;;22.54;51.90;102327.25;5056262;28;20036;-71
2022/08/30 05:45:04;;;;;;;13.07;7.10;;;;;;;22.52;52.15;102324.81;5081821;28;20542;-71
2022/08/30 05:47:29;;;;;;;11.00;7.22;;;;;;;22.54;51.66;102327.25;5085628;28;20032;-73
2022/08/30 05:49:54;;;;;;;9.75;7.35;;;;;;;22.48;51.71;102328.34;5083675;28;20350;-71
2022/08/30 05:52:20;;;;;;;8.27;6.85;;;;;;;22.30;52.07;102324.16;5084646;28;20054;-72
2022/08/30 05:54:51;;;;;;;10.00;7.75;;;;;;;22.54;51.76;102330.00;5066752;28;20041;-71
2022/08/30 05:57:17;;;;;;;8.93;7.35;;;;;;;22.53;51.91;102320.94;5083357;28;20492;-72
2022/08/30 05:59:43;;;;;;;8.95;6.70;;;;;;;22.65;51.21;102323.50;5079927;28;20064;-73
2022/08/30 06:02:08;;;;;;;16.17;7.38;;;;;;;22.41;52.12;102330.47;5084934;28;20411;-72
2022/08/30 06:04:35;;;;;;;10.93;7.35;;;;;;;22.46;52.21;102334.09;5094232;28;20027;-72
2022/08/30 06:07:01;;;;;;;11.20;8.05;;;;;;;22.53;51.82;102331.09;5094947;28;20375;-72
2022/08/30 06:09:26;;;;;;;7.78;6.40;;;;;;;22.85;51.19;102331.78;5094435;28;20059;-71
2022/08/30 06:11:52;;;;;;;8.70;6.70;;;;;;;22.94;50.71;102329.34;5093918;28;20040;-72
2022/08/30 06:14:17;;;;;;;15.73;6.45;;;;;;;22.75;50.78;102331.75;5093960;28;20040;-72
2022/08/30 06:16:44;;;;;;;11.35;7.25;;;;;;;22.78;51.01;102330.38;5093854;28;20036;-72
2022/08/30 06:19:10;;;;;;;12.73;6.97;;;;;;;22.81;51.01;102330.66;5088867;28;20040;-72
2022/08/30 06:21:38;;;;;;;8.75;6.03;;;;;;;22.70;50.95;102337.22;5084993;28;20429;-72
2022/08/30 06:24:06;;;;;;;9.02;6.65;;;;;;;22.88;50.92;102333.97;5083075;28;20565;-72
2022/08/30 06:26:40;;;;;;;14.93;6.45;;;;;;;23.01;50.72;102336.19;5084180;28;20047;-72
2022/08/30 06:29:07;;;;;;;7.80;6.45;;;;;;;22.88;51.01;102338.63;5084007;28;20102;-72
2022/08/30 06:31:32;;;;;;;9.95;5.78;;;;;;;22.96;50.66;102340.84;5082280;28;20093;-71
2022/08/30 06:33:58;;;;;;;9.35;5.38;;;;;;;23.15;50.51;102344.72;5084675;28;20024;-71
2022/08/30 06:36:24;;;;;;;8.82;5.53;;;;;;;23.11;50.26;102340.88;5075018;28;20055;-71
2022/08/30 06:38:52;;;;;;;12.38;6.25;;;;;;;23.29;50.10;102330.16;5094052;28;20522;-72
2022/08/30 06:41:23;;;;;;;9.57;5.88;;;;;;;22.87;50.77;102336.97;5093637;28;20070;-72
2022/08/30 06:43:49;;;;;;;8.27;6.20;;;;;;;23.19;49.57;102338.38;5093553;28;20111;-72
2022/08/30 06:46:24;;;;;;;24.00;7.85;;;;;;;23.39;49.19;102340.34;5094001;28;20532;-75
2022/08/30 06:48:50;;;;;;;48.40;10.98;;;;;;;22.96;50.47;102338.09;5093730;28;20031;-74
2022/08/30 06:51:21;;;;;;;14.68;5.95;;;;;;;22.67;50.75;102332.25;5093471;28;20044;-74
2022/08/30 06:53:48;;;;;;;15.40;5.68;;;;;;;23.51;48.78;102335.41;5093549;28;20507;-72
2022/08/30 06:56:13;;;;;;;10.98;5.28;;;;;;;23.51;49.10;102346.41;5093078;28;20036;-73
2022/08/30 06:58:39;;;;;;;33.58;7.85;;;;;;;23.63;49.09;102344.19;5093194;28;20051;-73
2022/08/30 07:01:06;;;;;;;10.73;5.60;;;;;;;23.82;48.25;102345.25;5094251;28;20020;-74
2022/08/30 07:03:33;;;;;;;6.65;5.10;;;;;;;23.90;48.23;102341.97;5093300;28;20118;-74
2022/08/30 07:05:58;;;;;;;7.03;4.82;;;;;;;23.83;48.40;102352.41;5093187;28;20048;-73
2022/08/30 07:08:24;;;;;;;9.27;4.43;;;;;;;24.03;47.88;102348.84;5093242;28;20526;-74
2022/08/30 07:10:50;;;;;;;5.93;4.38;;;;;;;23.98;47.69;102343.34;5074688;28;20395;-72
2022/08/30 07:13:18;;;;;;;4.63;3.70;;;;;;;23.80;48.07;102347.50;5093341;28;20035;-73
2022/08/30 07:15:44;;;;;;;9.68;3.40;;;;;;;24.27;46.72;102355.38;5088866;28;20034;-73
2022/08/30 07:20:55;;;;;;;6.85;3.88;;;;;;;24.29;47.02;102351.22;5092973;28;20043;-74
2022/08/30 07:23:20;;;;;;;5.63;3.83;;;;;;;24.33;46.76;102363.31;5092886;28;20040;-72
2022/08/30 07:25:45;;;;;;;5.82;4.05;;;;;;;24.36;46.61;102356.44;5092969;28;20035;-74
2022/08/30 07:28:11;;;;;;;7.22;4.32;;;;;;;23.92;47.41;102355.44;5093211;28;20141;-74
2022/08/30 07:30:39;;;;;;;8.93;3.88;;;;;;;23.79;47.70;102350.50;5074524;28;20044;-73
2022/08/30 07:33:04;;;;;;;6.85;4.28;;;;;;;24.61;46.00;102353.56;5092891;28;20043;-74
2022/08/30 07:35:30;;;;;;;4.95;3.38;;;;;;;24.58;46.03;102353.31;5092511;28;20043;-73
2022/08/30 07:37:56;;;;;;;10.25;4.30;;;;;;;24.36;46.46;102353.69;5092684;28;20028;-74
2022/08/30 07:40:21;;;;;;;6.10;4.32;;;;;;;24.96;45.24;102347.91;5092672;28;20036;-73
2022/08/30 07:42:46;;;;;;;3.78;3.40;;;;;;;24.40;45.67;102354.75;5092298;28;20032;-73
2022/08/30 07:45:12;;;;;;;7.45;3.47;;;;;;;24.86;45.14;102352.66;5092327;28;20044;-74
2022/08/30 07:47:37;;;;;;;7.35;2.80;;;;;;;25.16;44.26;102358.78;5088740;28;20388;-74
2022/08/30 07:50:04;;;;;;;5.55;2.80;;;;;;;25.15;44.02;102356.31;5081538;28;20032;-74
2022/08/30 07:52:30;;;;;;;4.43;2.80;;;;;;;24.75;44.53;102351.88;5081029;28;20035;-72
2022/08/30 07:54:56;;;;;;;5.10;2.70;;;;;;;25.08;43.61;102367.63;5085817;28;20024;-73
2022/08/30 07:57:23;;;;;;;5.88;2.50;;;;;;;25.07;43.17;102360.50;5081062;28;20499;-74
2022/08/30 07:59:49;;;;;;;3.72;2.83;;;;;;;24.88;44.28;102358.69;5081805;28;20028;-73
2022/08/30 08:02:14;;;;;;;5.07;2.53;;;;;;;25.26;42.91;102355.13;5076911;28;20576;-73
2022/08/30 08:04:40;;;;;;;3.80;2.22;;;;;;;25.66;42.10;102357.59;5075049;28;20476;-73
2022/08/30 08:07:05;;;;;;;4.53;2.22;;;;;;;25.50;42.26;102361.59;5072296;28;20028;-74
2022/08/30 08:09:30;;;;;;;3.53;1.88;;;;;;;25.74;41.19;102359.72;5071871;28;20052;-74
2022/08/30 08:11:56;;;;;;;5.63;1.83;;;;;;;25.66;40.96;102360.34;5071541;28;20033;-73
2022/08/30 08:14:22;;;;;;;3.85;1.60;;;;;;;25.20;41.17;102354.34;5083789;28;20032;-73
2022/08/30 08:16:48;;;;;;;3.05;1.58;;;;;;;25.35;40.64;102353.44;5085333;28;20036;-73
2022/08/30 08:19:13;;;;;;;3.42;2.10;;;;;;;25.53;40.47;102354.69;5083153;28;20045;-73
2022/08/30 08:21:39;;;;;;;3.78;1.70;;;;;;;25.58;39.44;102351.88;5080869;28;20516;-72
2022/08/30 08:24:05;;;;;;;5.03;1.50;;;;;;;25.55;39.39;102344.22;5073012;28;20045;-72
2022/08/30 08:26:33;;;;;;;3.58;1.65;;;;;;;25.83;38.13;102344.19;5071686;28;20056;-72
2022/08/30 08:28:58;;;;;;;3.55;1.65;;;;;;;26.13;37.96;102347.78;5071701;28;20090;-71
2022/08/30 08:31:27;;;;;;;3.83;1.50;;;;;;;26.10;38.13;102346.44;5072237;28;20538;-71
2022/08/30 08:33:53;;;;;;;7.38;1.70;;;;;;;26.36;38.30;102350.53;5072114;28;20117;-71
2022/08/30 08:36:18;;;;;;;5.95;1.70;;;;;;;25.63;38.26;102346.34;5071733;28;20484;-71
2022/08/30 08:38:44;;;;;;;4.03;1.85;;;;;;;26.00;38.24;102350.06;5071637;28;20063;-72
2022/08/30 08:41:49;;;;;;;5.20;2.05;;;;;;;26.20;37.17;102348.25;5071955;28;20028;-71
2022/08/30 08:44:27;;;;;;;2.97;1.95;;;;;;;25.78;37.59;102343.44;5071397;28;20044;-72
2022/08/30 08:46:58;;;;;;;5.85;1.58;;;;;;;26.33;37.43;102355.81;5071537;28;20036;-71
2022/08/30 08:49:24;;;;;;;4.30;1.75;;;;;;;26.74;35.96;102351.44;5072148;28;20040;-70
2022/08/30 08:54:43;;;;;;;7.45;2.85;;;;;;;26.59;36.42;102349.69;5091919;28;20043;-72
2022/08/30 08:57:09;;;;;;;5.15;2.08;;;;;;;26.87;36.04;102343.25;5091721;28;20083;-71
2022/08/30 08:59:36;;;;;;;6.40;2.15;;;;;;;26.79;36.19;102348.63;5091854;28;20040;-71
2022/08/30 09:02:18;;;;;;;3.60;1.42;;;;;;;26.32;36.48;102354.19;5092002;28;20057;-71
2022/08/30 09:04:44;;;;;;;4.55;1.92;;;;;;;26.55;36.12;102345.91;5093283;28;20055;-70
2022/08/30 09:07:25;;;;;;;3.70;1.67;;;;;;;27.00;35.20;102357.44;5096084;28;20032;-71
2022/08/30 09:09:50;;;;;;;2.40;1.52;;;;;;;26.54;35.58;102346.16;5095612;28;20089;-70
2022/08/30 09:12:16;;;;;;;5.68;1.90;;;;;;;27.03;34.55;102343.06;5095619;28;20424;-71
2022/08/30 09:14:48;;;;;;;2.08;1.30;;;;;;;27.08;33.80;102351.25;5095416;28;20043;-71
2022/08/30 09:17:15;;;;;;;6.03;1.65;;;;;;;27.02;33.79;102344.97;5094685;28;20059;-71
2022/08/30 09:19:55;;;;;;;3.38;1.60;;;;;;;27.31;34.24;102351.16;5077162;28;20035;-72
2022/08/30 09:22:26;;;;;;;4.28;1.98;;;;;;;27.24;33.96;102345.19;5095714;28;20104;-71
2022/08/30 09:25:12;;;;;;;4.75;1.65;;;;;;;28.14;33.04;102337.28;5095448;28;20467;-72
2022/08/30 09:27:41;;;;;;;1.67;1.17;;;;;;;27.78;33.00;102355.59;4992626;28;20038;-71
2022/08/30 09:30:25;;;;;;;8.68;1.55;;;;;;;27.82;32.41;102345.59;4993092;28;20088;-71
2022/08/30 09:33:02;;;;;;;2.97;1.50;;;;;;;27.28;34.05;102353.69;4993004;28;20410;-72
2022/08/30 09:35:42;;;;;;;3.00;1.50;;;;;;;27.91;32.92;102343.75;4976618;28;20042;-71
2022/08/30 09:38:07;;;;;;;3.88;1.70;;;;;;;27.50;33.65;102357.47;4992907;28;20069;-70
2022/08/30 09:40:39;;;;;;;5.35;1.50;;;;;;;27.27;33.51;102354.78;4992925;28;20554;-71
2022/08/30 09:43:07;;;;;;;3.80;1.58;;;;;;;28.08;32.93;102344.03;4992871;28;20653;-73
2022/08/30 09:45:39;;;;;;;4.28;1.23;;;;;;;28.41;32.00;102345.56;4992689;28;20046;-70
2022/08/30 09:48:39;;;;;;;2.42;1.20;;;;;;;28.23;32.37;102346.47;4983274;28;20206;-71
2022/08/30 09:51:11;;;;;;;2.65;1.08;;;;;;;28.21;30.89;102345.13;4981446;28;20049;-72
2022/08/30 09:54:06;;;;;;;4.30;1.58;;;;;;;28.57;30.51;102344.13;4981267;28;20049;-73
2022/08/30 09:56:49;;;;;;;2.88;1.50;;;;;;;27.49;32.46;102335.69;4982590;28;20034;-71
2022/08/30 09:59:36;;;;;;;4.10;1.75;;;;;;;28.01;31.65;102329.78;4980815;28;20078;-72
2022/08/30 10:02:47;;;;;;;3.70;1.60;;;;;;;28.53;30.82;102331.19;4981548;28;20387;-72
2022/08/30 10:05:29;;;;;;;5.30;1.50;;;;;;;29.14;30.28;102328.72;5051836;28;20028;-71
2022/08/30 10:08:07;;;;;;;2.42;1.27;;;;;;;29.19;29.90;102319.47;5081770;28;20063;-71
2022/08/30 10:10:51;;;;;;;2.45;1.27;;;;;;;28.86;30.75;102309.72;5086940;28;20032;-72
2022/08/30 10:13:37;;;;;;;3.67;1.20;;;;;;;29.44;29.63;102325.19;5083087;28;20464;-72
2022/08/30 10:16:29;;;;;;;2.97;1.30;;;;;;;28.56;30.55;102322.28;5083356;28;20392;-73
2022/08/30 10:19:24;;;;;;;5.70;1.73;;;;;;;28.90;29.95;102317.09;5082430;28;20516;-71
2022/08/30 10:22:12;;;;;;;7.88;1.80;;;;;;;29.21;29.88;102306.13;5076522;28;20120;-73
2022/08/30 10:24:43;;;;;;;2.30;1.20;;;;;;;29.50;29.47;102310.06;5082537;28;20386;-71
2022/08/30 10:27:28;;;;;;;9.32;1.63;;;;;;;29.32;29.37;102302.81;5081905;28;20041;-71
2022/08/30 10:30:04;;;;;;;6.60;1.02;;;;;;;29.61;29.47;102312.56;5082034;28;20195;-72
2022/08/30 10:32:58;;;;;;;2.65;1.50;;;;;;;28.96;29.71;102318.63;5081517;28;20530;-73
2022/08/30 10:35:31;;;;;;;2.15;1.20;;;;;;;29.02;29.31;102316.53;5083277;28;20048;-73
2022/08/30 10:38:06;;;;;;;1.67;1.20;;;;;;;28.79;28.57;102318.47;5064228;28;20472;-73
2022/08/30 10:43:58;;;;;;;3.25;1.30;;;;;;;29.43;28.45;102315.25;5084125;28;20054;-73
2022/08/30 10:47:01;;;;;;;3.00;1.30;;;;;;;29.85;27.67;102310.28;4964182;28;20105;-72
2022/08/30 10:49:29;;;;;;;2.78;1.20;;;;;;;30.18;27.42;102306.84;4913159;29;20036;-73
2022/08/30 10:52:11;;;;;;;4.22;1.25;;;;;;;30.51;26.61;102304.50;4911243;29;20477;-72
2022/08/30 10:54:49;;;;;;;3.08;1.48;;;;;;;30.95;25.73;102308.97;4911582;29;20032;-73
2022/08/30 10:57:15;;;;;;;1.73;1.25;;;;;;;30.62;26.25;102307.78;4913840;29;20034;-72
2022/08/30 10:59:49;;;;;;;4.05;1.20;;;;;;;30.57;27.37;102308.75;4914125;29;20524;-73
2022/08/30 11:02:51;;;;;;;5.65;1.35;;;;;;;29.94;26.80;102302.81;4913805;29;20095;-71
2022/08/30 11:05:36;;;;;;;2.10;1.17;;;;;;;30.20;26.10;102303.72;4914602;29;20036;-73
2022/08/30 11:08:32;;;;;;;2.20;1.70;;;;;;;31.02;26.03;102306.50;4912157;29;20075;-72
2022/08/30 11:11:11;;;;;;;4.68;1.10;;;;;;;30.20;26.58;102304.56;4911942;29;20055;-73
2022/08/30 11:13:39;;;;;;;3.22;1.33;;;;;;;30.63;25.66;102303.84;4913942;29;20158;-73
2022/08/30 11:16:14;;;;;;;2.70;1.20;;;;;;;30.28;26.15;102298.25;4917833;29;20063;-72
2022/08/30 11:18:50;;;;;;;4.53;1.27;;;;;;;30.34;25.78;102304.47;4913992;29;20642;-72
2022/08/30 11:21:24;;;;;;;2.25;1.10;;;;;;;30.35;25.43;102299.75;4914048;29;20044;-72
2022/08/30 11:24:22;;;;;;;1.65;0.90;;;;;;;30.78;25.25;102298.63;4983376;28;20045;-71
2022/08/30 11:26:56;;;;;;;1.95;1.27;;;;;;;30.69;25.08;102302.53;5068529;28;20774;-71
2022/08/30 11:29:33;;;;;;;4.65;1.20;;;;;;;30.41;25.99;102295.69;5092822;28;20040;-71
2022/08/30 11:32:23;;;;;;;2.92;1.10;;;;;;;30.70;25.25;102293.09;5093094;28;20110;-71
2022/08/30 11:34:57;;;;;;;1.95;1.10;;;;;;;30.36;25.24;102290.25;5093089;28;20059;-72
2022/08/30 11:37:43;;;;;;;3.75;1.23;;;;;;;31.16;25.27;102288.53;5087478;28;20020;-73
2022/08/30 11:40:23;;;;;;;2.13;1.10;;;;;;;30.97;23.79;102299.16;5090408;28;20085;-71
2022/08/30 11:42:54;;;;;;;3.75;1.15;;;;;;;30.90;24.06;102300.81;5083402;28;20062;-71